createdAt,value
2017-03-22T00:00:12.195Z,5
2017-03-22T00:01:12.664Z,4.97
2017-03-22T00:02:13.116Z,4.94
2017-03-22T00:03:13.592Z,4.94
2017-03-22T00:04:14.081Z,4.88
2017-03-22T00:05:14.569Z,4.85
2017-03-22T00:06:15.029Z,4.85
2017-03-22T00:07:15.490Z,4.78
2017-03-22T00:08:15.994Z,4.78
2017-03-22T00:09:16.470Z,4.74
2017-03-22T00:10:16.936Z,4.78
2017-03-22T00:11:17.370Z,4.65
2017-03-22T00:12:17.864Z,4.72
2017-03-22T00:13:18.353Z,4.65
2017-03-22T00:14:18.836Z,4.64
2017-03-22T00:15:19.307Z,4.65
2017-03-22T00:16:19.768Z,4.58
2017-03-22T00:17:20.239Z,4.61
2017-03-22T00:18:20.239Z,4.53
2017-03-22T00:19:20.701Z,4.47
2017-03-22T00:20:21.186Z,4.53
2017-03-22T00:21:21.662Z,4.44
2017-03-22T00:22:22.144Z,4.46
2017-03-22T00:23:22.625Z,4.44
2017-03-22T00:24:23.098Z,4.36
2017-03-22T00:25:23.595Z,4.36
2017-03-22T00:26:24.069Z,4.3
2017-03-22T00:27:24.565Z,4.3
2017-03-22T00:28:25.049Z,4.2
2017-03-22T00:29:25.515Z,4.2
2017-03-22T00:30:25.978Z,4.2
2017-03-22T00:31:26.446Z,4.2
2017-03-22T00:32:26.902Z,4.17
2017-03-22T00:33:27.395Z,4.18
2017-03-22T00:34:27.862Z,4.22
2017-03-22T00:35:28.347Z,4.22
2017-03-22T00:36:28.801Z,4.21
2017-03-22T00:37:29.277Z,4.15
2017-03-22T00:38:29.713Z,4.2
2017-03-22T00:39:30.201Z,4.17
2017-03-22T00:40:30.658Z,4.11
2017-03-22T00:41:31.142Z,4.14
2017-03-22T00:42:31.595Z,4.1
2017-03-22T00:43:32.085Z,3.94
2017-03-22T00:44:32.589Z,3.96
2017-03-22T00:45:33.073Z,3.97
2017-03-22T00:46:33.551Z,3.96
2017-03-22T00:47:34.031Z,4.1
2017-03-22T00:48:34.525Z,3.97
2017-03-22T00:49:35.025Z,3.94
2017-03-22T00:50:35.497Z,3.89
2017-03-22T00:51:35.989Z,3.9
2017-03-22T00:52:36.458Z,3.9
2017-03-22T00:53:36.943Z,3.86
2017-03-22T00:54:37.436Z,3.85
2017-03-22T00:55:37.926Z,3.76
2017-03-22T00:56:38.407Z,3.75
2017-03-22T00:57:38.896Z,3.84
2017-03-22T00:58:39.377Z,3.67
2017-03-22T00:59:39.866Z,3.78
2017-03-22T01:00:40.303Z,3.78
2017-03-22T01:01:40.792Z,3.63
2017-03-22T01:02:41.275Z,3.61
2017-03-22T01:03:41.766Z,3.48
2017-03-22T01:04:42.261Z,3.48
2017-03-22T01:05:42.751Z,3.45
2017-03-22T01:06:43.232Z,3.48
2017-03-22T01:07:43.710Z,3.48
2017-03-22T01:08:44.203Z,3.42
2017-03-22T01:09:44.708Z,3.4
2017-03-22T01:10:45.191Z,3.37
2017-03-22T01:11:45.683Z,3.4
2017-03-22T01:12:46.168Z,3.42
2017-03-22T01:13:46.628Z,3.39
2017-03-22T01:14:47.116Z,3.39
2017-03-22T01:15:47.608Z,3.32
2017-03-22T01:16:48.085Z,3.34
2017-03-22T01:17:48.552Z,3.39
2017-03-22T01:18:49.032Z,3.37
2017-03-22T01:19:49.517Z,3.32
2017-03-22T01:20:50.005Z,3.35
2017-03-22T01:21:50.475Z,3.3
2017-03-22T01:22:50.957Z,3.17
2017-03-22T01:23:51.426Z,3.27
2017-03-22T01:24:51.915Z,3.45
2017-03-22T01:25:52.407Z,3.21
2017-03-22T01:26:52.891Z,3.37
2017-03-22T01:27:53.362Z,3.2
2017-03-22T01:28:53.854Z,3.3
2017-03-22T01:29:54.349Z,3.24
2017-03-22T01:30:54.855Z,3.35
2017-03-22T01:31:55.338Z,3.21
2017-03-22T01:32:55.815Z,3.34
2017-03-22T01:33:56.299Z,3.21
2017-03-22T01:34:56.797Z,3.27
2017-03-22T01:35:57.284Z,3.29
2017-03-22T01:36:57.786Z,3.4
2017-03-22T01:37:58.241Z,3.26
2017-03-22T01:38:58.719Z,3.26
2017-03-22T01:39:59.208Z,3.17
2017-03-22T01:40:59.700Z,3.19
2017-03-22T01:42:00.182Z,3.19
2017-03-22T01:43:00.648Z,3.19
2017-03-22T01:44:01.146Z,3.24
2017-03-22T01:45:01.623Z,3.21
2017-03-22T01:46:02.063Z,3.23
2017-03-22T01:47:02.536Z,3.2
2017-03-22T01:48:03.024Z,3.19
2017-03-22T01:49:03.491Z,3.14
2017-03-22T01:50:03.984Z,3.16
2017-03-22T01:51:04.484Z,3.14
2017-03-22T01:52:04.964Z,3.08
2017-03-22T01:53:05.443Z,3.03
2017-03-22T01:54:05.949Z,3.06
2017-03-22T01:55:06.441Z,3.03
2017-03-22T01:56:06.925Z,3.05
2017-03-22T01:57:07.382Z,2.98
2017-03-22T01:58:07.874Z,2.99
2017-03-22T01:59:08.284Z,3.03
2017-03-22T02:00:08.793Z,2.98
2017-03-22T02:01:09.270Z,3.01
2017-03-22T02:02:09.765Z,2.88
2017-03-22T02:03:10.250Z,3.01
2017-03-22T02:04:10.734Z,2.84
2017-03-22T02:05:11.209Z,2.88
2017-03-22T02:06:11.719Z,2.85
2017-03-22T02:07:12.204Z,2.91
2017-03-22T02:08:12.677Z,2.96
2017-03-22T02:09:13.159Z,2.93
2017-03-22T02:10:13.644Z,2.91
2017-03-22T02:11:14.166Z,3.01
2017-03-22T02:12:14.639Z,2.81
2017-03-22T02:13:15.091Z,2.9
2017-03-22T02:14:15.561Z,2.84
2017-03-22T02:15:16.027Z,2.84
2017-03-22T02:16:16.478Z,2.85
2017-03-22T02:17:16.974Z,2.76
2017-03-22T02:18:16.985Z,2.83
2017-03-22T02:19:17.460Z,2.84
2017-03-22T02:20:17.943Z,2.84
2017-03-22T02:21:18.402Z,2.83
2017-03-22T02:22:18.858Z,2.88
2017-03-22T02:23:19.393Z,2.83
2017-03-22T02:24:19.354Z,2.81
2017-03-22T02:25:19.845Z,2.88
2017-03-22T02:26:20.337Z,2.84
2017-03-22T02:27:20.807Z,2.87
2017-03-22T02:28:21.284Z,2.84
2017-03-22T02:29:21.781Z,2.84
2017-03-22T02:30:22.276Z,2.84
2017-03-22T02:31:22.765Z,2.83
2017-03-22T02:32:23.233Z,2.8
2017-03-22T02:33:23.763Z,2.76
2017-03-22T02:34:24.252Z,2.87
2017-03-22T02:35:24.715Z,2.73
2017-03-22T02:36:25.151Z,2.83
2017-03-22T02:37:25.616Z,2.9
2017-03-22T02:38:26.085Z,2.83
2017-03-22T02:39:26.581Z,2.85
2017-03-22T02:40:27.010Z,2.83
2017-03-22T02:41:27.456Z,2.76
2017-03-22T02:42:27.897Z,2.9
2017-03-22T02:43:28.395Z,2.85
2017-03-22T02:44:28.889Z,2.83
2017-03-22T02:45:29.368Z,2.9
2017-03-22T02:46:29.985Z,2.83
2017-03-22T02:47:29.963Z,2.99
2017-03-22T02:48:30.450Z,2.91
2017-03-22T02:49:30.895Z,2.98
2017-03-22T02:50:31.380Z,2.87
2017-03-22T02:51:32.087Z,2.88
2017-03-22T02:52:31.993Z,2.88
2017-03-22T02:53:32.114Z,2.88
2017-03-22T02:54:31.989Z,2.83
2017-03-22T02:55:32.470Z,2.9
2017-03-22T02:56:32.944Z,2.96
2017-03-22T02:57:33.409Z,2.85
2017-03-22T02:58:33.883Z,2.87
2017-03-22T02:59:34.357Z,2.99
2017-03-22T03:00:35.016Z,2.99
2017-03-22T03:01:35.021Z,2.93
2017-03-22T03:02:34.881Z,2.99
2017-03-22T03:03:35.367Z,2.96
2017-03-22T03:04:35.871Z,3.05
2017-03-22T03:05:36.341Z,3.03
2017-03-22T03:06:36.813Z,3.01
2017-03-22T03:07:37.289Z,2.95
2017-03-22T03:08:37.774Z,3.05
2017-03-22T03:09:38.256Z,2.98
2017-03-22T03:10:38.696Z,2.98
2017-03-22T03:11:39.164Z,2.98
2017-03-22T03:12:39.617Z,3.09
2017-03-22T03:13:40.116Z,3.08
2017-03-22T03:14:40.643Z,2.96
2017-03-22T03:15:40.618Z,2.96
2017-03-22T03:16:41.092Z,2.95
2017-03-22T03:17:41.556Z,2.98
2017-03-22T03:18:42.027Z,2.98
2017-03-22T03:19:42.536Z,2.99
2017-03-22T03:20:43.017Z,2.9
2017-03-22T03:21:43.459Z,2.91
2017-03-22T03:22:43.898Z,2.99
2017-03-22T03:23:44.353Z,2.88
2017-03-22T03:24:44.817Z,2.81
2017-03-22T03:25:45.300Z,2.9
2017-03-22T03:26:45.758Z,2.87
2017-03-22T03:27:46.285Z,2.8
2017-03-22T03:28:46.255Z,2.8
2017-03-22T03:29:46.757Z,2.87
2017-03-22T03:30:47.243Z,2.93
2017-03-22T03:31:47.709Z,2.87
2017-03-22T03:32:48.191Z,2.87
2017-03-22T03:33:48.674Z,2.84
2017-03-22T03:34:49.102Z,2.84
2017-03-22T03:35:49.582Z,2.81
2017-03-22T03:36:50.074Z,2.84
2017-03-22T03:37:50.550Z,2.85
2017-03-22T03:38:51.040Z,2.81
2017-03-22T03:39:51.519Z,2.8
2017-03-22T03:40:52.007Z,2.83
2017-03-22T03:41:52.513Z,2.96
2017-03-22T03:42:52.469Z,2.91
2017-03-22T03:43:53.126Z,2.99
2017-03-22T03:44:53.239Z,2.99
2017-03-22T03:45:53.189Z,2.98
2017-03-22T03:46:53.151Z,2.95
2017-03-22T03:47:53.150Z,2.99
2017-03-22T03:48:53.645Z,2.96
2017-03-22T03:49:54.134Z,2.99
2017-03-22T03:50:54.606Z,2.98
2017-03-22T03:51:55.088Z,2.99
2017-03-22T03:52:55.578Z,3.01
2017-03-22T03:53:56.057Z,2.96
2017-03-22T03:54:56.542Z,2.96
2017-03-22T03:55:57.009Z,2.88
2017-03-22T03:56:57.487Z,2.87
2017-03-22T03:57:57.985Z,2.81
2017-03-22T03:58:57.981Z,2.85
2017-03-22T03:59:58.465Z,2.81
2017-03-22T04:00:58.959Z,2.91
2017-03-22T04:01:59.453Z,2.87
2017-03-22T04:02:59.933Z,2.87
2017-03-22T04:04:00.383Z,2.76
2017-03-22T04:05:00.871Z,2.83
2017-03-22T04:06:01.532Z,2.8
2017-03-22T04:07:01.309Z,2.87
2017-03-22T04:08:01.794Z,2.83
2017-03-22T04:09:02.280Z,2.88
2017-03-22T04:10:02.754Z,2.9
2017-03-22T04:11:03.238Z,2.87
2017-03-22T04:12:03.709Z,2.88
2017-03-22T04:13:04.195Z,2.84
2017-03-22T04:14:04.680Z,2.99
2017-03-22T04:15:05.154Z,2.99
2017-03-22T04:16:05.613Z,2.95
2017-03-22T04:17:06.084Z,2.91
2017-03-22T04:18:06.556Z,2.91
2017-03-22T04:19:07.039Z,2.87
2017-03-22T04:20:07.495Z,2.91
2017-03-22T04:21:07.934Z,2.83
2017-03-22T04:22:08.410Z,2.85
2017-03-22T04:23:08.861Z,2.84
2017-03-22T04:24:09.347Z,2.81
2017-03-22T04:25:09.831Z,2.85
2017-03-22T04:26:10.245Z,2.8
2017-03-22T04:27:10.719Z,2.72
2017-03-22T04:28:11.187Z,2.76
2017-03-22T04:29:11.684Z,2.8
2017-03-22T04:30:12.147Z,2.77
2017-03-22T04:31:12.617Z,2.7
2017-03-22T04:32:13.097Z,2.78
2017-03-22T04:33:13.114Z,2.73
2017-03-22T04:34:13.592Z,2.72
2017-03-22T04:35:14.073Z,2.8
2017-03-22T04:36:14.560Z,2.73
2017-03-22T04:37:15.018Z,2.62
2017-03-22T04:38:15.503Z,2.72
2017-03-22T04:39:15.967Z,2.7
2017-03-22T04:40:16.450Z,2.69
2017-03-22T04:41:16.909Z,2.69
2017-03-22T04:42:17.407Z,2.7
2017-03-22T04:43:17.874Z,2.72
2017-03-22T04:44:18.365Z,2.65
2017-03-22T04:45:18.870Z,2.7
2017-03-22T04:46:19.348Z,2.67
2017-03-22T04:47:19.819Z,2.66
2017-03-22T04:48:20.306Z,2.67
2017-03-22T04:49:20.771Z,2.62
2017-03-22T04:50:21.258Z,2.69
2017-03-22T04:51:21.731Z,2.7
2017-03-22T04:52:22.196Z,2.72
2017-03-22T04:53:22.678Z,2.66
2017-03-22T04:54:23.165Z,2.72
2017-03-22T04:55:23.590Z,2.67
2017-03-22T04:56:23.668Z,2.72
2017-03-22T04:57:23.821Z,2.67
2017-03-22T04:58:23.878Z,2.6
2017-03-22T04:59:23.717Z,2.52
2017-03-22T05:00:24.222Z,2.55
2017-03-22T05:01:24.248Z,2.58
2017-03-22T05:02:24.294Z,2.54
2017-03-22T05:03:24.288Z,2.44
2017-03-22T05:04:24.795Z,2.55
2017-03-22T05:05:24.826Z,2.47
2017-03-22T05:06:25.522Z,2.49
2017-03-22T05:07:25.667Z,2.45
2017-03-22T05:08:25.690Z,2.48
2017-03-22T05:09:25.588Z,2.48
2017-03-22T05:10:25.569Z,2.4
2017-03-22T05:11:25.578Z,2.44
2017-03-22T05:12:26.086Z,2.49
2017-03-22T05:13:26.109Z,2.48
2017-03-22T05:14:26.135Z,2.47
2017-03-22T05:15:26.645Z,2.41
2017-03-22T05:16:27.167Z,2.44
2017-03-22T05:17:27.161Z,2.47
2017-03-22T05:18:27.186Z,2.49
2017-03-22T05:19:27.207Z,2.51
2017-03-22T05:20:28.046Z,2.45
2017-03-22T05:21:27.995Z,2.48
2017-03-22T05:22:28.087Z,2.41
2017-03-22T05:23:28.060Z,2.54
2017-03-22T05:24:27.949Z,2.48
2017-03-22T05:25:28.517Z,2.48
2017-03-22T05:26:28.477Z,2.48
2017-03-22T05:27:29.012Z,2.54
2017-03-22T05:28:28.997Z,2.49
2017-03-22T05:29:29.532Z,2.48
2017-03-22T05:30:29.534Z,2.58
2017-03-22T05:31:30.226Z,2.52
2017-03-22T05:32:30.271Z,2.62
2017-03-22T05:33:30.345Z,2.62
2017-03-22T05:34:30.206Z,2.7
2017-03-22T05:35:30.184Z,2.76
2017-03-22T05:36:30.741Z,2.67
2017-03-22T05:37:31.285Z,2.69
2017-03-22T05:38:31.288Z,2.77
2017-03-22T05:39:31.461Z,2.81
2017-03-22T05:40:31.565Z,2.87
2017-03-22T05:41:31.670Z,2.87
2017-03-22T05:42:31.688Z,2.8
2017-03-22T05:43:31.670Z,2.83
2017-03-22T05:44:31.623Z,2.95
2017-03-22T05:45:31.466Z,2.98
2017-03-22T05:46:31.523Z,3.13
2017-03-22T05:47:31.577Z,3.05
2017-03-22T05:48:31.548Z,2.96
2017-03-22T05:49:31.704Z,3.05
2017-03-22T05:50:31.626Z,3.13
2017-03-22T05:51:31.915Z,3.09
2017-03-22T05:52:31.914Z,3.21
2017-03-22T05:53:31.985Z,3.26
2017-03-22T05:54:31.725Z,3.29
2017-03-22T05:55:31.720Z,3.39
2017-03-22T05:56:31.770Z,3.4
2017-03-22T05:57:31.770Z,3.4
2017-03-22T05:58:31.830Z,3.53
2017-03-22T05:59:31.846Z,3.61
2017-03-22T06:00:31.915Z,3.66
2017-03-22T06:01:32.194Z,3.74
2017-03-22T06:02:32.206Z,3.84
2017-03-22T06:03:32.222Z,3.92
2017-03-22T06:04:31.959Z,3.93
2017-03-22T06:05:32.040Z,3.94
2017-03-22T06:06:32.045Z,4.04
2017-03-22T06:07:32.032Z,4.17
2017-03-22T06:08:32.093Z,4.28
2017-03-22T06:09:32.094Z,4.44
2017-03-22T06:10:32.142Z,4.54
2017-03-22T06:11:32.133Z,4.66
2017-03-22T06:12:32.171Z,4.65
2017-03-22T06:13:32.238Z,4.74
2017-03-22T06:14:32.279Z,4.85
2017-03-22T06:15:32.332Z,4.83
2017-03-22T06:16:32.516Z,4.84
2017-03-22T06:17:32.572Z,4.98
2017-03-22T06:18:32.590Z,5.06
2017-03-22T06:19:32.359Z,5.21
2017-03-22T06:20:32.386Z,5.3
2017-03-22T06:21:32.440Z,5.45
2017-03-22T06:22:32.440Z,5.55
2017-03-22T06:23:32.505Z,5.6
2017-03-22T06:24:32.551Z,5.7
2017-03-22T06:25:32.774Z,5.69
2017-03-22T06:26:32.806Z,5.7
2017-03-22T06:27:32.850Z,5.73
2017-03-22T06:28:32.848Z,5.62
2017-03-22T06:29:32.687Z,5.63
2017-03-22T06:30:32.795Z,5.7
2017-03-22T06:31:32.693Z,5.64
2017-03-22T06:32:32.750Z,5.52
2017-03-22T06:33:32.746Z,5.44
2017-03-22T06:34:32.809Z,5.27
2017-03-22T06:35:32.833Z,5.16
2017-03-22T06:36:33.127Z,5.09
2017-03-22T06:37:33.160Z,5.16
2017-03-22T06:38:33.197Z,5.02
2017-03-22T06:39:32.891Z,5.08
2017-03-22T06:40:33.192Z,5.02
2017-03-22T06:41:32.994Z,5.06
2017-03-22T06:42:33.011Z,5.1
2017-03-22T06:43:33.045Z,5
2017-03-22T06:44:33.045Z,5.13
2017-03-22T06:45:33.100Z,5.28
2017-03-22T06:46:33.104Z,5.45
2017-03-22T06:47:33.153Z,5.72
2017-03-22T06:48:33.151Z,6.2
2017-03-22T06:49:33.187Z,7.04
2017-03-22T06:50:33.443Z,8.03
2017-03-22T06:51:33.521Z,8.92
2017-03-22T06:52:33.560Z,9.35
2017-03-22T06:53:33.605Z,9.47
2017-03-22T06:54:33.348Z,9.5
2017-03-22T06:55:33.386Z,9.53
2017-03-22T06:56:33.411Z,9.56
2017-03-22T06:57:33.467Z,9.84
2017-03-22T06:58:33.447Z,10.08
2017-03-22T06:59:33.499Z,10.55
2017-03-22T07:00:33.526Z,10.91
2017-03-22T07:01:33.547Z,11.08
2017-03-22T07:02:33.539Z,11.34
2017-03-22T07:03:33.590Z,11.85
2017-03-22T07:04:33.614Z,12.34
2017-03-22T07:05:33.871Z,12.94
2017-03-22T07:06:33.986Z,13.75
2017-03-22T07:07:34.037Z,14.69
2017-03-22T07:08:34.031Z,15.7
2017-03-22T07:09:33.772Z,16.58
2017-03-22T07:10:33.782Z,17.09
2017-03-22T07:11:33.863Z,17.86
2017-03-22T07:12:33.852Z,18.34
2017-03-22T07:13:33.881Z,18.59
2017-03-22T07:14:33.950Z,18.79
2017-03-22T07:15:33.963Z,18.96
2017-03-22T07:16:34.073Z,19.17
2017-03-22T07:17:34.026Z,19.2
2017-03-22T07:18:34.079Z,19.2
2017-03-22T07:19:34.072Z,19.17
2017-03-22T07:20:34.324Z,18.84
2017-03-22T07:21:34.406Z,18.57
2017-03-22T07:22:34.458Z,17.86
2017-03-22T07:23:34.463Z,17.31
2017-03-22T07:24:34.251Z,16.67
2017-03-22T07:25:34.263Z,16.17
2017-03-22T07:26:34.318Z,15.88
2017-03-22T07:27:34.345Z,15.73
2017-03-22T07:28:34.372Z,15.4
2017-03-22T07:29:34.400Z,15.26
2017-03-22T07:30:34.470Z,15.07
2017-03-22T07:31:34.608Z,15.16
2017-03-22T07:32:34.506Z,15.2
2017-03-22T07:33:34.828Z,15.53
2017-03-22T07:34:34.829Z,15.74
2017-03-22T07:35:34.595Z,16.11
2017-03-22T07:36:34.666Z,16.59
2017-03-22T07:37:34.691Z,16.88
2017-03-22T07:38:34.693Z,17.15
2017-03-22T07:39:34.750Z,17.62
2017-03-22T07:40:35.030Z,18.13
2017-03-22T07:41:35.028Z,18.76
2017-03-22T07:42:35.074Z,19.35
2017-03-22T07:43:35.177Z,19.71
2017-03-22T07:44:34.899Z,19.7
2017-03-22T07:45:34.957Z,19.9
2017-03-22T07:46:34.999Z,20.3
2017-03-22T07:47:35.038Z,20.79
2017-03-22T07:48:35.045Z,21.31
2017-03-22T07:49:35.094Z,21.49
2017-03-22T07:50:35.470Z,21.78
2017-03-22T07:51:35.411Z,21.76
2017-03-22T07:52:35.447Z,21.77
2017-03-22T07:53:35.552Z,21.56
2017-03-22T07:54:35.285Z,21.28
2017-03-22T07:55:35.441Z,21.31
2017-03-22T07:56:35.354Z,21.71
2017-03-22T07:57:35.390Z,22.36
2017-03-22T07:58:35.416Z,22.7
2017-03-22T07:59:35.498Z,22.85
2017-03-22T08:00:35.541Z,23.04
2017-03-22T08:01:35.508Z,23.24
2017-03-22T08:02:35.596Z,23.59
2017-03-22T08:03:35.626Z,23.72
2017-03-22T08:04:35.684Z,23.7
2017-03-22T08:05:35.900Z,23.79
2017-03-22T08:06:35.941Z,23.96
2017-03-22T08:07:36.054Z,24.48
2017-03-22T08:08:36.079Z,24.69
2017-03-22T08:09:35.847Z,24.66
2017-03-22T08:10:35.895Z,25.09
2017-03-22T08:11:35.889Z,25.39
2017-03-22T08:12:35.976Z,25.64
2017-03-22T08:13:36.011Z,25.85
2017-03-22T08:14:36.038Z,26.2
2017-03-22T08:15:36.285Z,26.5
2017-03-22T08:16:36.340Z,26.53
2017-03-22T08:17:36.429Z,26.41
2017-03-22T08:18:36.468Z,26.49
2017-03-22T08:19:36.202Z,26.38
2017-03-22T08:20:36.287Z,26.54
2017-03-22T08:21:36.286Z,26.47
2017-03-22T08:22:36.365Z,26.34
2017-03-22T08:23:36.407Z,26.16
2017-03-22T08:24:36.427Z,25.88
2017-03-22T08:25:36.480Z,25.82
2017-03-22T08:26:36.692Z,26.03
2017-03-22T08:27:36.868Z,26.34
2017-03-22T08:28:36.637Z,26.42
2017-03-22T08:29:36.915Z,26.57
2017-03-22T08:30:36.661Z,26.89
2017-03-22T08:31:36.854Z,26.84
2017-03-22T08:32:36.752Z,26.35
2017-03-22T08:33:36.813Z,26.37
2017-03-22T08:34:36.843Z,25.97
2017-03-22T08:35:36.901Z,25.96
2017-03-22T08:36:37.011Z,25.49
2017-03-22T08:37:37.201Z,24.45
2017-03-22T08:38:37.271Z,23.63
2017-03-22T08:39:37.347Z,23.82
2017-03-22T08:40:37.094Z,24.24
2017-03-22T08:41:37.218Z,24.8
2017-03-22T08:42:37.149Z,25.32
2017-03-22T08:43:37.210Z,25.51
2017-03-22T08:44:37.242Z,25.78
2017-03-22T08:45:37.357Z,26.31
2017-03-22T08:46:37.658Z,26.56
2017-03-22T08:47:37.574Z,26.5
2017-03-22T08:48:37.704Z,26.68
2017-03-22T08:49:37.453Z,26.87
2017-03-22T08:50:37.496Z,27.05
2017-03-22T08:51:37.523Z,27.48
2017-03-22T08:52:37.599Z,27.45
2017-03-22T08:53:37.626Z,27.74
2017-03-22T08:54:37.663Z,27.3
2017-03-22T08:55:37.906Z,27.31
2017-03-22T08:56:37.748Z,27.24
2017-03-22T08:57:37.901Z,27.51
2017-03-22T08:58:37.863Z,27.06
2017-03-22T08:59:37.914Z,26.86
2017-03-22T09:00:37.924Z,26.89
2017-03-22T09:01:37.962Z,26.41
2017-03-22T09:02:38.003Z,26.11
2017-03-22T09:03:38.104Z,25.62
2017-03-22T09:04:38.128Z,25.33
2017-03-22T09:05:38.369Z,25.34
2017-03-22T09:06:38.325Z,25.51
2017-03-22T09:07:38.493Z,25.71
2017-03-22T09:08:38.552Z,25.79
2017-03-22T09:09:38.300Z,25.74
2017-03-22T09:10:38.361Z,25.62
2017-03-22T09:11:38.385Z,25.67
2017-03-22T09:12:38.484Z,26
2017-03-22T09:13:38.510Z,26.5
2017-03-22T09:14:38.550Z,26.71
2017-03-22T09:15:38.598Z,26.52
2017-03-22T09:16:38.718Z,26.47
2017-03-22T09:17:38.766Z,26.93
2017-03-22T09:18:38.913Z,27.36
2017-03-22T09:19:38.769Z,27.55
2017-03-22T09:20:38.935Z,27.68
2017-03-22T09:21:38.830Z,27.83
2017-03-22T09:22:38.915Z,28.41
2017-03-22T09:23:38.973Z,29.02
2017-03-22T09:24:38.952Z,29.17
2017-03-22T09:25:38.998Z,28.65
2017-03-22T09:26:39.072Z,28.7
2017-03-22T09:27:39.088Z,28.42
2017-03-22T09:28:39.163Z,27.93
2017-03-22T09:29:39.166Z,27.65
2017-03-22T09:30:39.632Z,27.38
2017-03-22T09:31:39.465Z,27.45
2017-03-22T09:32:39.566Z,27.65
2017-03-22T09:33:39.362Z,27.84
2017-03-22T09:34:39.474Z,28.43
2017-03-22T09:35:39.728Z,28.98
2017-03-22T09:36:39.463Z,29.52
2017-03-22T09:37:39.548Z,29.63
2017-03-22T09:38:39.581Z,29.58
2017-03-22T09:39:39.642Z,29.77
2017-03-22T09:40:39.862Z,29.87
2017-03-22T09:41:39.880Z,29.65
2017-03-22T09:42:40.072Z,29.5
2017-03-22T09:43:40.105Z,29.03
2017-03-22T09:44:39.871Z,29.01
2017-03-22T09:45:39.939Z,28.53
2017-03-22T09:46:39.952Z,28.33
2017-03-22T09:47:39.960Z,27.93
2017-03-22T09:48:40.013Z,28.01
2017-03-22T09:49:40.051Z,27.68
2017-03-22T09:50:40.098Z,27.48
2017-03-22T09:51:40.163Z,27.24
2017-03-22T09:52:40.191Z,26.81
2017-03-22T09:53:40.274Z,26.89
2017-03-22T09:54:40.303Z,27.04
2017-03-22T09:55:40.539Z,27.42
2017-03-22T09:56:40.696Z,27.99
2017-03-22T09:57:40.708Z,28.55
2017-03-22T09:58:40.768Z,29.13
2017-03-22T09:59:40.523Z,29.5
2017-03-22T10:00:40.567Z,28.97
2017-03-22T10:01:40.581Z,27.57
2017-03-22T10:02:40.631Z,26.04
2017-03-22T10:03:40.667Z,24.3
2017-03-22T10:04:40.736Z,23.48
2017-03-22T10:05:40.812Z,23.64
2017-03-22T10:06:40.796Z,24.15
2017-03-22T10:07:40.890Z,24.4
2017-03-22T10:08:40.894Z,24.55
2017-03-22T10:09:40.924Z,25.39
2017-03-22T10:10:40.991Z,26.31
2017-03-22T10:11:41.219Z,26.23
2017-03-22T10:12:41.290Z,26.53
2017-03-22T10:13:41.389Z,26.74
2017-03-22T10:14:41.333Z,26.84
2017-03-22T10:15:41.192Z,26.99
2017-03-22T10:16:41.246Z,27.45
2017-03-22T10:17:41.280Z,27.55
2017-03-22T10:18:41.294Z,27.69
2017-03-22T10:19:41.323Z,28.16
2017-03-22T10:20:41.547Z,28.7
2017-03-22T10:21:41.428Z,29.32
2017-03-22T10:22:41.489Z,28.98
2017-03-22T10:23:41.504Z,27.94
2017-03-22T10:24:41.526Z,27.01
2017-03-22T10:25:41.637Z,26.97
2017-03-22T10:26:41.618Z,27.43
2017-03-22T10:27:41.710Z,28.12
2017-03-22T10:28:41.830Z,27.51
2017-03-22T10:29:41.747Z,26.53
2017-03-22T10:30:41.766Z,25.11
2017-03-22T10:31:41.816Z,24.32
2017-03-22T10:32:41.886Z,24.14
2017-03-22T10:33:41.886Z,24.18
2017-03-22T10:34:41.982Z,24.34
2017-03-22T10:35:42.264Z,24.54
2017-03-22T10:36:42.015Z,24.27
2017-03-22T10:37:42.188Z,23.74
2017-03-22T10:38:42.391Z,23.29
2017-03-22T10:39:42.133Z,23.42
2017-03-22T10:40:42.197Z,23.62
2017-03-22T10:41:42.223Z,24.4
2017-03-22T10:42:42.278Z,25.47
2017-03-22T10:43:42.291Z,26.06
2017-03-22T10:44:42.388Z,26.71
2017-03-22T10:45:42.375Z,26.49
2017-03-22T10:46:42.390Z,26.53
2017-03-22T10:47:42.440Z,26.38
2017-03-22T10:48:42.510Z,26.12
2017-03-22T10:49:42.512Z,26.06
2017-03-22T10:50:42.853Z,26.47
2017-03-22T10:51:42.843Z,26.49
2017-03-22T10:52:42.862Z,26.71
2017-03-22T10:53:42.895Z,27.26
2017-03-22T10:54:42.688Z,27.94
2017-03-22T10:55:42.731Z,28.61
2017-03-22T10:56:42.788Z,29.1
2017-03-22T10:57:42.830Z,29.36
2017-03-22T10:58:42.838Z,29.42
2017-03-22T10:59:42.907Z,29.17
2017-03-22T11:00:42.957Z,28.78
2017-03-22T11:01:42.950Z,28.67
2017-03-22T11:02:42.999Z,28.79
2017-03-22T11:03:43.049Z,29.14
2017-03-22T11:04:43.139Z,29.4
2017-03-22T11:05:43.149Z,29.28
2017-03-22T11:06:43.394Z,28.94
2017-03-22T11:07:43.376Z,28.7
2017-03-22T11:08:43.505Z,28.82
2017-03-22T11:09:43.533Z,28.53
2017-03-22T11:10:43.271Z,27.51
2017-03-22T11:11:43.381Z,26.26
2017-03-22T11:12:43.440Z,25.71
2017-03-22T11:13:43.393Z,25.63
2017-03-22T11:14:43.480Z,25.94
2017-03-22T11:15:43.467Z,25.97
2017-03-22T11:16:43.525Z,25.86
2017-03-22T11:17:43.550Z,25.67
2017-03-22T11:18:43.592Z,25.64
2017-03-22T11:19:43.614Z,25.34
2017-03-22T11:20:43.830Z,25.05
2017-03-22T11:21:43.886Z,24.7
2017-03-22T11:22:43.954Z,24.9
2017-03-22T11:23:44.036Z,25.3
2017-03-22T11:24:43.815Z,25.78
2017-03-22T11:25:43.888Z,26.49
2017-03-22T11:26:43.894Z,27.28
2017-03-22T11:27:43.895Z,28.12
2017-03-22T11:28:43.946Z,28.72
2017-03-22T11:29:44.013Z,29.39
2017-03-22T11:30:44.015Z,29.58
2017-03-22T11:31:44.050Z,29.39
2017-03-22T11:32:44.097Z,28.85
2017-03-22T11:33:44.120Z,27.09
2017-03-22T11:34:44.168Z,25.84
2017-03-22T11:35:44.173Z,24.36
2017-03-22T11:36:44.407Z,23.21
2017-03-22T11:37:44.566Z,22.14
2017-03-22T11:38:44.598Z,21.66
2017-03-22T11:39:44.656Z,21.04
2017-03-22T11:40:44.394Z,19.72
2017-03-22T11:41:44.428Z,18.79
2017-03-22T11:42:44.480Z,18.02
2017-03-22T11:43:44.489Z,17.5
2017-03-22T11:44:44.528Z,17.15
2017-03-22T11:45:44.555Z,16.76
2017-03-22T11:46:44.607Z,16.39
2017-03-22T11:47:44.650Z,16.4
2017-03-22T11:48:44.648Z,16.25
2017-03-22T11:49:44.707Z,15.96
2017-03-22T11:50:44.749Z,15.73
2017-03-22T11:51:44.786Z,15.73
2017-03-22T11:52:44.789Z,15.71
2017-03-22T11:53:45.012Z,15.81
2017-03-22T11:54:44.863Z,15.59
2017-03-22T11:55:44.885Z,15.22
2017-03-22T11:56:44.970Z,15.12
2017-03-22T11:57:44.948Z,15.23
2017-03-22T11:58:44.988Z,15.47
2017-03-22T11:59:45.064Z,15.83
2017-03-22T12:00:45.321Z,16.17
2017-03-22T12:01:45.295Z,16.42
2017-03-22T12:02:45.389Z,16.57
2017-03-22T12:03:45.464Z,16.73
2017-03-22T12:04:45.223Z,16.51
2017-03-22T12:05:45.252Z,16.21
2017-03-22T12:06:45.303Z,15.84
2017-03-22T12:07:45.307Z,15.63
2017-03-22T12:08:45.337Z,15.51
2017-03-22T12:09:45.412Z,15.41
2017-03-22T12:10:45.393Z,15.05
2017-03-22T12:11:45.496Z,14.9
2017-03-22T12:12:45.498Z,14.93
2017-03-22T12:13:45.569Z,14.98
2017-03-22T12:14:45.536Z,15
2017-03-22T12:15:45.579Z,15.13
2017-03-22T12:16:45.807Z,15.2
2017-03-22T12:17:45.826Z,15.31
2017-03-22T12:18:45.980Z,15.22
2017-03-22T12:19:46.009Z,15.27
2017-03-22T12:20:45.745Z,15.25
2017-03-22T12:21:45.813Z,15.2
2017-03-22T12:22:45.823Z,15.23
2017-03-22T12:23:45.844Z,15.15
2017-03-22T12:24:45.876Z,15.13
2017-03-22T12:25:45.966Z,15
2017-03-22T12:26:46.222Z,14.93
2017-03-22T12:27:46.215Z,14.69
2017-03-22T12:28:46.266Z,14.83
2017-03-22T12:29:46.342Z,14.75
2017-03-22T12:30:46.111Z,14.7
2017-03-22T12:31:46.146Z,14.69
2017-03-22T12:32:46.144Z,14.69
2017-03-22T12:33:46.186Z,14.46
2017-03-22T12:34:46.233Z,14.34
2017-03-22T12:35:46.273Z,14.33
2017-03-22T12:36:46.286Z,14.19
2017-03-22T12:37:46.348Z,14.2
2017-03-22T12:38:46.355Z,13.78
2017-03-22T12:39:46.432Z,13.65
2017-03-22T12:40:46.447Z,13.45
2017-03-22T12:41:46.505Z,13.16
2017-03-22T12:42:46.504Z,13.01
2017-03-22T12:43:46.579Z,13.07
2017-03-22T12:44:46.566Z,13.11
2017-03-22T12:45:46.744Z,13.14
2017-03-22T12:46:46.717Z,13.17
2017-03-22T12:47:46.889Z,13.21
2017-03-22T12:48:46.957Z,13.21
2017-03-22T12:49:46.971Z,13.11
2017-03-22T12:50:47.118Z,13.14
2017-03-22T12:51:46.871Z,13.14
2017-03-22T12:52:46.944Z,13.19
2017-03-22T12:53:46.905Z,13.35
2017-03-22T12:54:47.029Z,13.47
2017-03-22T12:55:47.003Z,13.51
2017-03-22T12:56:47.081Z,13.51
2017-03-22T12:57:47.105Z,13.65
2017-03-22T12:58:47.030Z,13.55
2017-03-22T12:59:47.050Z,13.62
2017-03-22T13:00:47.085Z,13.5
2017-03-22T13:01:47.141Z,13.53
2017-03-22T13:02:47.178Z,13.62
2017-03-22T13:03:47.194Z,13.7
2017-03-22T13:04:47.263Z,13.65
2017-03-22T13:05:47.254Z,13.54
2017-03-22T13:06:47.324Z,13.66
2017-03-22T13:07:47.361Z,13.51
2017-03-22T13:08:47.377Z,13.62
2017-03-22T13:09:47.408Z,13.5
2017-03-22T13:10:47.440Z,13.51
2017-03-22T13:11:47.462Z,13.44